Stations météo

réclame
Mon MeteoGroup
Cairngorm, Grande-Bretagne (3065): Température de l'air & dewpoint: 19.02.2018 01:00:00 - 25.02.2018 01:00:00 (GMT)Cairngorm, Grande-Bretagne (3065): Vitesse du vent & gusts: 19.02.2018 01:00:00 - 25.02.2018 01:00:00 (GMT)Cairngorm, Grande-Bretagne (3065): Direction du vent: 19.02.2018 01:00:00 - 25.02.2018 01:00:00 (GMT)
Date & Time tt [°C] td [°C] ff [km/h] ff [knt] fx [km/h] fx [knt] dd
25.02.2018 01:00:00 -7,7 -8,4 52 28 67 36 S
25.02.2018 00:00:00 -7,0 -7,5 50 27 65 35 S
24.02.2018 23:00:00 -7,0 -7,5 55 30 76 41 S
24.02.2018 22:00:00 -6,8 -7,3 54 29 67 36 SSE
24.02.2018 21:00:00 -6,7 -7,1 42 23 57 31 SSE
24.02.2018 20:00:00 -6,6 -7,0 35 19 54 29 SSE
24.02.2018 19:00:00 -6,6 -7,1 39 21 52 28 S
24.02.2018 18:00:00 -6,7 -7,1 39 21 52 28 S
24.02.2018 17:00:00 -6,3 -6,7 39 21 68 37 SSE
24.02.2018 16:00:00 -5,9 -6,4 48 26 91 49 SE
24.02.2018 15:00:00 -6,3 -6,7 61 33 96 52 S
24.02.2018 14:00:00 -6,3 -6,7 57 31 107 58 S
24.02.2018 13:00:00 -6,3 -6,8 74 40 115 62 S
24.02.2018 12:00:00 -6,5 -6,9 63 34 104 56 S
24.02.2018 11:00:00 -6,6 -7,0 74 40 106 57 SSE
24.02.2018 10:00:00 -7,0 -7,5 81 44 130 70 SSE
24.02.2018 09:00:00 -7,2 -7,7 96 52 139 75 SSE
24.02.2018 08:00:00 -7,7 -8,2 106 57 150 81 SSE
24.02.2018 07:00:00 -7,5 -8,0 106 57 131 71 SSE
24.02.2018 06:00:00 -7,7 -8,2 93 50 124 67 SSE
24.02.2018 05:00:00 -8,1 -8,7 94 51 152 82 SSE
24.02.2018 04:00:00 -7,8 -8,4 111 60 137 74 SSE
24.02.2018 03:00:00 -7,6 -8,1 117 63 139 75 SSE
24.02.2018 02:00:00 -7,4 -8,0 117 63 144 78 SSE
24.02.2018 01:00:00 -7,3 -7,8 117 63 130 70 SSE
24.02.2018 00:00:00 -7,0 -7,5 109 59 137 74 SSE
23.02.2018 23:00:00 -6,8 -7,3 106 57 119 64 SSE
23.02.2018 22:00:00 -6,6 -7,0 102 55 122 66 SSE
23.02.2018 21:00:00 -6,4 -6,8 91 49 124 67 SSE
23.02.2018 20:00:00 -6,5 -6,9 81 44 107 58 SSE
23.02.2018 19:00:00 -6,5 -6,9 81 44 106 57 SSE
23.02.2018 18:00:00 -6,3 -6,6 68 37 94 51 SSE
23.02.2018 17:00:00 -6,7 -7,0 48 26 72 39 SSE
23.02.2018 16:00:00 -6,8 -7,5 48 26 72 39 SSE
23.02.2018 15:00:00 -6,5 -7,3 55 30 102 55 SSE
23.02.2018 14:00:00 -6,9 -7,9 83 45 102 55 S
23.02.2018 13:00:00 -7,1 -7,8 63 34 - - S
23.02.2018 12:00:00 -7,5 -8,6 76 41 96 52 S
23.02.2018 11:00:00 -7,6 -8,9 72 39 93 50 S
23.02.2018 10:00:00 -7,6 -8,9 74 40 87 47 S
23.02.2018 09:00:00 -7,7 -8,3 57 31 78 42 S
23.02.2018 08:00:00 -7,1 -7,9 57 31 74 40 SSW
23.02.2018 07:00:00 -7,0 -7,6 54 29 68 37 S
23.02.2018 06:00:00 -7,4 -7,9 50 27 63 34 S
23.02.2018 05:00:00 -7,5 -8,0 59 32 74 40 S
23.02.2018 04:00:00 -7,0 -7,6 42 23 61 33 S
23.02.2018 03:00:00 -6,8 -7,3 46 25 65 35 S
23.02.2018 02:00:00 -6,7 -7,2 46 25 72 39 S
23.02.2018 01:00:00 -6,3 -6,7 50 27 68 37 S
23.02.2018 00:00:00 -6,1 -6,5 55 30 70 38 S
22.02.2018 23:00:00 -5,8 -6,2 55 30 72 39 S
22.02.2018 22:00:00 -5,6 -6,0 59 32 81 44 S
22.02.2018 21:00:00 -5,4 -5,7 57 31 72 39 S
22.02.2018 20:00:00 -5,0 -5,2 52 28 72 39 S
22.02.2018 19:00:00 -4,6 -4,8 59 32 81 44 S
22.02.2018 18:00:00 -4,5 -4,6 65 35 87 47 S
22.02.2018 17:00:00 -4,8 -5,0 63 34 83 45 S
22.02.2018 16:00:00 -4,8 -5,2 70 38 87 47 S
22.02.2018 15:00:00 -4,8 -5,8 74 40 104 56 S
22.02.2018 14:00:00 -5,0 -5,8 87 47 107 58 S
22.02.2018 13:00:00 -5,2 -6,0 94 51 107 58 S
22.02.2018 12:00:00 -5,4 -6,3 87 47 100 54 S
22.02.2018 11:00:00 -5,5 -6,3 80 43 - - S
22.02.2018 10:00:00 -5,5 -5,8 78 42 87 47 S
22.02.2018 09:00:00 -5,3 -5,6 76 41 85 46 S
22.02.2018 08:00:00 -5,6 -5,9 59 32 78 42 S
22.02.2018 07:00:00 -5,4 -5,6 68 37 78 42 S
22.02.2018 06:00:00 -5,4 -5,7 67 36 80 43 S
22.02.2018 05:00:00 -5,5 -5,7 57 31 74 40 S
22.02.2018 04:00:00 -5,6 -5,9 52 28 70 38 S
22.02.2018 03:00:00 -5,4 -5,7 67 36 80 43 S
22.02.2018 02:00:00 -5,1 -5,3 55 30 72 39 S
22.02.2018 01:00:00 -4,9 -5,1 54 29 70 38 S
22.02.2018 00:00:00 -4,8 -5,0 52 28 65 35 S
21.02.2018 23:00:00 -4,7 -4,8 50 27 63 34 S
21.02.2018 22:00:00 -4,4 -4,4 44 24 54 29 S
21.02.2018 21:00:00 -4,2 -4,2 39 21 50 27 S
21.02.2018 20:00:00 -4,1 -4,1 35 19 50 27 S
21.02.2018 19:00:00 -4,3 -4,3 35 19 - - S
21.02.2018 18:00:00 -4,2 -4,2 29 16 - - S
21.02.2018 17:00:00 -4,4 -4,4 31 17 - - S
21.02.2018 16:00:00 -4,4 -4,5 26 14 - - S
21.02.2018 15:00:00 -4,4 -4,5 - - - - -
21.02.2018 14:00:00 -4,5 -4,6 - - - - -
21.02.2018 13:00:00 -4,6 -4,9 - - - - -
21.02.2018 12:00:00 -4,8 -5,0 - - - - -
21.02.2018 11:00:00 -4,8 -4,9 - - - - -
21.02.2018 10:00:00 -5,2 -5,2 - - - - -
21.02.2018 09:00:00 -5,2 -5,2 5 3 - - S
21.02.2018 08:00:00 -6,0 -6,3 4 2 - - ESE
21.02.2018 07:00:00 -5,7 -6,0 5 3 - - ENE
21.02.2018 06:00:00 -5,1 -5,3 - - - - -
21.02.2018 05:00:00 -5,1 -5,3 - - - - -
21.02.2018 04:00:00 -4,9 -5,1 - - - - -
21.02.2018 03:00:00 -4,3 -4,4 - - - - -
21.02.2018 02:00:00 -4,1 -4,2 - - - - -
21.02.2018 01:00:00 -4,1 -4,2 31 17 - - NW
21.02.2018 00:00:00 -4,1 -4,1 35 19 46 25 NNW
20.02.2018 23:00:00 -4,1 -4,1 34 18 50 27 NW
20.02.2018 22:00:00 -4,2 -4,2 29 16 54 29 NW
20.02.2018 21:00:00 -3,8 -3,9 41 22 57 31 NW
20.02.2018 20:00:00 -3,5 -3,6 41 22 63 34 NW
20.02.2018 19:00:00 -3,3 -3,4 42 23 59 32 NW
20.02.2018 18:00:00 -3,1 -3,2 54 29 63 34 NW
20.02.2018 17:00:00 -2,8 -2,8 42 23 68 37 WNW
20.02.2018 16:00:00 -3,0 -3,0 - - 55 30 -
20.02.2018 15:00:00 -2,6 -2,6 50 27 67 36 NNW
20.02.2018 14:00:00 -2,3 -2,3 46 25 63 34 NW
20.02.2018 13:00:00 -2,3 -2,3 48 26 68 37 NW
20.02.2018 12:00:00 -2,3 -2,3 55 30 76 41 NW
20.02.2018 11:00:00 -2,7 -2,7 54 29 81 44 NW
20.02.2018 10:00:00 -2,9 -2,9 65 35 83 45 NW
20.02.2018 09:00:00 -3,0 -3,0 72 39 87 47 NW
20.02.2018 08:00:00 -2,8 -2,8 - - - - -
20.02.2018 07:00:00 -2,7 -2,7 - - - - -
20.02.2018 06:00:00 -2,7 -2,7 - - - - -
20.02.2018 05:00:00 -2,6 -2,6 - - - - -
20.02.2018 04:00:00 -2,7 -2,7 - - 89 48 -
20.02.2018 03:00:00 -2,7 -2,7 67 36 85 46 WNW
20.02.2018 02:00:00 -2,2 -2,2 70 38 81 44 WNW
20.02.2018 01:00:00 -1,4 -1,4 70 38 78 42 WNW
20.02.2018 00:00:00 -1,0 -1,0 50 27 55 30 WNW
19.02.2018 23:00:00 -0,6 -0,6 48 26 63 34 WNW
19.02.2018 22:00:00 2,2 2,2 35 19 48 26 W
19.02.2018 21:00:00 3,1 3,1 18 10 - - W
19.02.2018 20:00:00 3,6 3,6 16 9 - - W
19.02.2018 19:00:00 2,9 2,9 22 12 - - W
19.02.2018 18:00:00 2,2 2,2 24 13 - - WNW
19.02.2018 17:00:00 2,2 2,2 26 14 - - W
19.02.2018 16:00:00 3,1 3,1 35 19 50 27 W
19.02.2018 15:00:00 2,2 2,1 34 18 52 28 WNW
19.02.2018 14:00:00 2,0 2,0 41 22 55 30 WNW
19.02.2018 13:00:00 2,5 2,4 50 27 59 32 WNW
19.02.2018 12:00:00 2,9 2,8 44 24 65 35 WNW
19.02.2018 11:00:00 3,0 3,0 44 24 55 30 WNW
19.02.2018 10:00:00 3,3 3,3 42 23 54 29 WNW
19.02.2018 09:00:00 3,2 3,2 41 22 52 28 WNW
19.02.2018 08:00:00 3,2 3,2 41 22 52 28 WNW
19.02.2018 07:00:00 3,4 3,4 42 23 54 29 WNW
19.02.2018 06:00:00 3,3 3,3 44 24 55 30 WNW
19.02.2018 05:00:00 3,0 3,0 48 26 59 32 WNW
19.02.2018 04:00:00 3,3 3,3 52 28 61 33 WNW
19.02.2018 03:00:00 3,1 3,1 41 22 48 26 WNW
19.02.2018 02:00:00 2,7 2,7 39 21 52 28 WNW
19.02.2018 01:00:00 2,7 2,7 39 21 52 28 W

tt = Température de l'air
td = dewpoint
ff = Vitesse du vent
fx = gusts
dd = Direction du vent

stations d'obs. à proximité